Time,TemperatureF,DewpointF,PressureIn,WindDirection,WindDirectionDegrees,WindSpeedMPH,WindSpeedGustMPH,Humidity,HourlyPrecipIn,Conditions,Clouds,dailyrainin,SoftwareType,DateUTC
2013-09-02 00:20:00,83.1,76.3,29.92,ESE,123,2.0,8.0,80,0.00,,,0.00,VWS V14.01,2013-09-02 04:20:00,
2013-09-02 00:50:00,83.2,76.8,29.90,ESE,109,7.0,8.0,81,0.00,,,0.00,VWS V14.01,2013-09-02 04:50:00,
2013-09-02 01:20:00,83.1,76.7,29.89,ESE,110,7.0,9.0,81,0.00,,,0.00,VWS V14.01,2013-09-02 05:20:00,
2013-09-02 01:51:00,83.2,76.8,29.88,East,100,0.0,8.0,81,0.00,,,0.00,VWS V14.01,2013-09-02 05:51:00,
2013-09-02 02:20:00,82.7,75.9,29.87,ESE,102,4.0,8.0,80,0.00,,,0.00,VWS V14.01,2013-09-02 06:20:00,
2013-09-02 02:50:00,82.6,76.2,29.86,SE,131,2.0,8.0,81,0.00,,,0.00,VWS V14.01,2013-09-02 06:50:00,
2013-09-02 03:20:00,82.9,76.8,29.85,ESE,109,2.0,9.0,82,0.00,,,0.00,VWS V14.01,2013-09-02 07:20:00,
2013-09-02 03:51:00,82.5,75.3,29.86,East,96,1.0,8.0,79,0.00,,,0.00,VWS V14.01,2013-09-02 07:51:00,
2013-09-02 04:20:00,82.5,75.7,29.86,ESE,108,1.0,7.0,80,0.00,,,0.00,VWS V14.01,2013-09-02 08:20:00,
2013-09-02 04:51:00,82.4,75.6,29.86,East,99,1.0,8.0,80,0.00,,,0.00,VWS V14.01,2013-09-02 08:51:00,
2013-09-02 05:20:00,82.6,75.8,29.87,East,91,3.0,8.0,80,0.00,,,0.00,VWS V14.01,2013-09-02 09:20:00,
2013-09-02 05:50:00,82.9,75.7,29.87,East,93,2.0,9.0,79,0.00,,,0.00,VWS V14.01,2013-09-02 09:50:00,
2013-09-02 06:21:00,82.6,75.8,29.88,ESE,108,2.0,7.0,80,0.00,,,0.00,VWS V14.01,2013-09-02 10:21:00,
2013-09-02 06:50:00,81.8,75.0,29.88,South,186,2.0,7.0,80,0.00,,,0.00,VWS V14.01,2013-09-02 10:50:00,
2013-09-02 07:20:00,81.1,75.8,29.89,South,175,5.0,5.0,84,0.00,,,0.00,VWS V14.01,2013-09-02 11:20:00,
2013-09-02 07:50:00,82.6,76.9,29.90,ESE,115,1.0,5.0,83,0.00,,,0.00,VWS V14.01,2013-09-02 11:50:00,
2013-09-02 08:20:00,85.7,76.9,29.91,ESE,119,3.0,8.0,75,0.00,,,0.00,VWS V14.01,2013-09-02 12:20:00,
2013-09-02 08:50:00,85.9,76.2,29.91,SE,127,1.0,9.0,73,0.00,,,0.00,VWS V14.01,2013-09-02 12:50:00,
2013-09-02 09:20:00,84.6,77.4,29.92,East,90,5.0,11.0,79,0.00,,,0.00,VWS V14.01,2013-09-02 13:20:00,
2013-09-02 09:50:00,86.6,77.7,29.93,ESE,113,8.0,13.0,75,0.00,,,0.00,VWS V14.01,2013-09-02 13:50:00,
2013-09-02 10:20:00,87.2,77.9,29.93,ESE,111,7.0,12.0,74,0.00,,,0.00,VWS V14.01,2013-09-02 14:20:00,
2013-09-02 10:51:00,87.6,77.9,29.93,East,82,5.0,10.0,73,0.00,,,0.00,VWS V14.01,2013-09-02 14:51:00,
2013-09-02 11:20:00,88.4,78.2,29.92,ESE,115,4.0,11.0,72,0.00,,,0.00,VWS V14.01,2013-09-02 15:20:00,
2013-09-02 11:50:00,88.3,77.7,29.92,East,86,5.0,10.0,71,0.00,,,0.00,VWS V14.01,2013-09-02 15:50:00,
2013-09-02 12:21:00,88.4,77.8,29.91,East,83,1.0,10.0,71,0.00,,,0.00,VWS V14.01,2013-09-02 16:21:00,
2013-09-02 12:50:00,88.7,77.7,29.90,East,94,9.0,11.0,70,0.00,,,0.00,VWS V14.01,2013-09-02 16:50:00,
2013-09-02 13:21:00,88.2,78.4,29.89,East,82,3.0,11.0,73,0.00,,,0.00,VWS V14.01,2013-09-02 17:21:00,
2013-09-02 13:50:00,87.9,77.3,29.88,ENE,60,9.0,11.0,71,0.00,,,0.00,VWS V14.01,2013-09-02 17:50:00,
2013-09-02 14:21:00,88.3,78.1,29.86,ENE,78,2.0,11.0,72,0.00,,,0.00,VWS V14.01,2013-09-02 18:21:00,
2013-09-02 14:51:00,87.6,77.9,29.86,ENE,69,4.0,11.0,73,0.00,,,0.00,VWS V14.01,2013-09-02 18:51:00,